West Falls, New York
Current Conditions -  °F | °C
As of 2:54 AM on Friday 21 Nov 2014 (Local Time) from KBUF Reporting Station
Few Clouds Few Clouds  
Wind Chill: -15°   Ceiling: Unl
Heat Index: -7°   Visibility: 10mi
Dew Point: -13°   Wind: 14mph
Humidity: 65%   Direction: 250°WSW
Pressure: 30.08"   Gusts: NA
Location:  42.7°N, 78.68°W
Report Text: KBUF 210754Z 25012KT 10SM FEW030 FEW100 M07/M13 A3008 RMK AO2 SLP197 T10721128
Loading
Personal Weather Stations






























Interactive Weather Map New forecast layout! Learn more

10-Day Weather Forecast

Advertisements
Track Severe Weather on mobile